createdAt,value
2018-04-12T00:01:33.562Z,11.68
2018-04-12T00:04:01.411Z,11.73
2018-04-12T00:06:29.033Z,11.70
2018-04-12T00:08:56.771Z,11.67
2018-04-12T00:11:24.384Z,11.67
2018-04-12T00:13:52.025Z,11.65
2018-04-12T00:16:19.616Z,11.62
2018-04-12T00:18:47.320Z,11.61
2018-04-12T00:21:14.928Z,11.61
2018-04-12T00:23:42.586Z,11.61
2018-04-12T00:26:10.176Z,11.61
2018-04-12T00:28:37.863Z,11.60
2018-04-12T00:31:05.514Z,11.59
2018-04-12T00:33:33.175Z,11.58
2018-04-12T00:36:00.785Z,11.57
2018-04-12T00:38:28.450Z,11.51
2018-04-12T00:40:56.120Z,11.40
2018-04-12T00:43:23.720Z,11.31
2018-04-12T00:45:51.325Z,11.32
2018-04-12T00:48:18.929Z,11.30
2018-04-12T00:50:46.573Z,11.29
2018-04-12T00:53:14.169Z,11.31
2018-04-12T00:55:41.837Z,11.32
2018-04-12T00:58:09.473Z,11.27
2018-04-12T01:00:37.109Z,11.29
2018-04-12T01:03:04.713Z,11.29
2018-04-12T01:05:32.361Z,11.27
2018-04-12T01:08:00.112Z,11.27
2018-04-12T01:10:27.814Z,11.21
2018-04-12T01:12:55.429Z,11.13
2018-04-12T01:15:23.134Z,11.03
2018-04-12T01:17:50.720Z,11.03
2018-04-12T01:20:18.413Z,11.03
2018-04-12T01:22:46.041Z,11.09
2018-04-12T01:25:13.733Z,11.10
2018-04-12T01:27:41.494Z,11.09
2018-04-12T01:30:09.161Z,11.11
2018-04-12T01:32:36.837Z,11.09
2018-04-12T01:35:04.518Z,11.13
2018-04-12T01:37:32.260Z,11.15
2018-04-12T01:39:59.876Z,11.07
2018-04-12T01:42:27.589Z,11.03
2018-04-12T01:44:55.300Z,11.06
2018-04-12T01:47:22.962Z,10.99
2018-04-12T01:49:50.625Z,10.92
2018-04-12T01:52:18.424Z,10.78
2018-04-12T01:54:46.062Z,10.77
2018-04-12T01:57:13.781Z,10.72
2018-04-12T01:59:41.477Z,10.72
2018-04-12T02:02:09.167Z,10.68
2018-04-12T02:04:36.849Z,10.71
2018-04-12T02:07:04.466Z,10.77
2018-04-12T02:09:32.112Z,10.83
2018-04-12T02:11:59.838Z,10.85
2018-04-12T02:14:27.549Z,10.87
2018-04-12T02:16:55.158Z,10.88
2018-04-12T02:19:22.854Z,10.89
2018-04-12T02:21:50.514Z,10.82
2018-04-12T02:24:18.233Z,10.79
2018-04-12T02:26:45.862Z,10.79
2018-04-12T02:29:13.595Z,10.72
2018-04-12T02:31:41.443Z,10.71
2018-04-12T02:34:09.148Z,10.62
2018-04-12T02:36:36.885Z,10.61
2018-04-12T02:39:04.498Z,10.58
2018-04-12T02:41:32.161Z,10.61
2018-04-12T02:43:59.899Z,10.63
2018-04-12T02:46:27.548Z,10.66
2018-04-12T02:48:55.239Z,10.62
2018-04-12T02:51:22.966Z,10.55
2018-04-12T02:53:50.647Z,10.50
2018-04-12T02:56:18.358Z,10.48
2018-04-12T02:58:46.150Z,10.46
2018-04-12T03:01:13.899Z,10.48
2018-04-12T03:03:41.560Z,10.51
2018-04-12T03:06:09.268Z,10.58
2018-04-12T03:08:37.009Z,10.56
2018-04-12T03:11:04.767Z,10.54
2018-04-12T03:13:32.553Z,10.51
2018-04-12T03:16:00.419Z,10.43
2018-04-12T03:18:28.172Z,10.39
2018-04-12T03:20:55.925Z,10.39
2018-04-12T03:23:23.604Z,10.38
2018-04-12T03:25:51.342Z,10.30
2018-04-12T03:28:18.999Z,10.30
2018-04-12T03:30:46.764Z,10.26
2018-04-12T03:33:14.563Z,10.28
2018-04-12T03:35:42.434Z,10.25
2018-04-12T03:38:10.215Z,10.12
2018-04-12T03:40:38.048Z,10.13
2018-04-12T03:43:05.951Z,10.13
2018-04-12T03:45:33.600Z,10.08
2018-04-12T03:48:01.322Z,10.09
2018-04-12T03:50:29.165Z,10.17
2018-04-12T03:52:56.910Z,10.19
2018-04-12T03:55:24.782Z,10.16
2018-04-12T03:57:52.445Z,10.10
2018-04-12T04:00:20.168Z,10.07
2018-04-12T04:02:47.887Z,10.12
2018-04-12T04:05:15.608Z,10.18
2018-04-12T04:07:43.312Z,10.29
2018-04-12T04:10:10.985Z,10.35
2018-04-12T04:12:38.896Z,10.36
2018-04-12T04:15:27.061Z,10.33
2018-04-12T04:18:06.524Z,10.30
2018-04-12T04:20:45.847Z,10.29
2018-04-12T04:23:13.769Z,10.20
2018-04-12T04:25:41.586Z,10.20
2018-04-12T04:28:09.704Z,10.15
2018-04-12T04:30:37.517Z,10.12
2018-04-12T04:33:05.323Z,10.14
2018-04-12T04:35:35.091Z,10.18
2018-04-12T04:38:02.926Z,10.16
2018-04-12T04:40:30.706Z,10.14
2018-04-12T04:42:58.628Z,10.21
2018-04-12T04:45:26.378Z,10.26
2018-04-12T04:47:54.027Z,10.25
2018-04-12T04:50:21.734Z,10.27
2018-04-12T04:52:49.465Z,10.29
2018-04-12T04:55:17.421Z,10.19
2018-04-12T04:57:45.246Z,10.17
2018-04-12T05:00:13.063Z,10.16
2018-04-12T05:02:40.874Z,10.13
2018-04-12T05:05:08.588Z,10.15
2018-04-12T05:07:36.224Z,10.18
2018-04-12T05:10:03.832Z,10.22
2018-04-12T05:12:31.582Z,10.25
2018-04-12T05:14:59.292Z,10.24
2018-04-12T05:17:26.991Z,10.29
2018-04-12T05:19:54.680Z,10.32
2018-04-12T05:22:22.503Z,10.36
2018-04-12T05:24:50.139Z,10.39
2018-04-12T05:27:17.825Z,10.41
2018-04-12T05:29:45.623Z,10.42
2018-04-12T05:32:13.290Z,10.50
2018-04-12T05:34:40.965Z,10.58
2018-04-12T05:37:14.457Z,10.64
2018-04-12T05:39:42.088Z,10.68
2018-04-12T05:47:51.779Z,10.86
2018-04-12T05:50:19.443Z,10.91
2018-04-12T05:52:47.120Z,10.97
2018-04-12T05:55:14.769Z,10.99
2018-04-12T05:57:42.426Z,11.02
2018-04-12T06:00:10.132Z,11.06
2018-04-12T06:02:37.921Z,11.10
2018-04-12T06:05:05.623Z,11.14
2018-04-12T06:07:33.374Z,11.17
2018-04-12T06:10:01.077Z,11.21
2018-04-12T06:12:28.782Z,11.23
2018-04-12T06:14:56.505Z,11.28
2018-04-12T06:17:24.236Z,11.31
2018-04-12T06:19:51.978Z,11.33
2018-04-12T06:22:19.645Z,11.33
2018-04-12T06:24:47.320Z,11.33
2018-04-12T06:27:14.915Z,11.38
2018-04-12T06:29:42.569Z,11.35
2018-04-12T06:32:10.310Z,11.35
2018-04-12T06:34:37.962Z,11.37
2018-04-12T06:37:05.636Z,11.43
2018-04-12T06:39:33.263Z,11.46
2018-04-12T06:42:00.982Z,11.49
2018-04-12T06:44:28.844Z,11.49
2018-04-12T06:46:56.531Z,11.56
2018-04-12T06:49:24.248Z,11.64
2018-04-12T06:51:51.886Z,11.72
2018-04-12T06:54:19.497Z,11.77
2018-04-12T06:56:47.156Z,11.80
2018-04-12T06:59:14.862Z,11.82
2018-04-12T07:01:42.522Z,11.84
2018-04-12T07:04:10.167Z,11.82
2018-04-12T07:06:37.817Z,11.85
2018-04-12T07:09:06.206Z,11.86
2018-04-12T07:11:33.873Z,11.88
2018-04-12T07:14:01.482Z,11.91
2018-04-12T07:16:29.160Z,12.01
2018-04-12T07:18:56.838Z,12.06
2018-04-12T07:21:25.322Z,12.12
2018-04-12T07:23:53.052Z,12.17
2018-04-12T07:26:21.970Z,12.16
2018-04-12T07:28:49.823Z,12.19
2018-04-12T07:31:17.552Z,12.20
2018-04-12T07:33:45.241Z,12.19
2018-04-12T07:36:12.881Z,12.12
2018-04-12T07:38:40.688Z,12.04
2018-04-12T07:41:08.899Z,12.04
2018-04-12T07:43:36.863Z,12.08
2018-04-12T07:46:04.426Z,12.12
2018-04-12T07:48:32.071Z,12.14
2018-04-12T07:50:59.693Z,12.14
2018-04-12T07:53:27.358Z,12.22
2018-04-12T07:55:54.996Z,12.22
2018-04-12T07:58:22.676Z,12.27
2018-04-12T08:00:50.281Z,12.25
2018-04-12T08:03:17.956Z,12.26
2018-04-12T08:05:45.596Z,12.30
2018-04-12T08:08:13.253Z,12.30
2018-04-12T08:10:40.849Z,12.28
2018-04-12T08:13:08.505Z,12.25
2018-04-12T08:15:36.133Z,12.23
2018-04-12T08:18:03.743Z,12.19
2018-04-12T08:20:31.415Z,12.21
2018-04-12T08:22:59.068Z,12.29
2018-04-12T08:25:26.704Z,12.38
2018-04-12T08:27:54.365Z,12.45
2018-04-12T08:30:22.099Z,12.55
2018-04-12T08:32:49.686Z,12.66
2018-04-12T08:35:17.366Z,12.73
2018-04-12T08:37:45.024Z,12.82
2018-04-12T08:40:12.713Z,12.90
2018-04-12T08:42:40.443Z,12.96
2018-04-12T08:45:08.150Z,13.01
2018-04-12T08:47:35.793Z,13.11
2018-04-12T08:50:03.563Z,13.16
2018-04-12T08:52:31.235Z,13.25
2018-04-12T08:54:58.873Z,13.37
2018-04-12T08:57:26.595Z,13.45
2018-04-12T08:59:54.338Z,13.55
2018-04-12T09:02:22.022Z,13.64
2018-04-12T09:04:49.681Z,13.73
2018-04-12T09:07:17.408Z,13.85
2018-04-12T09:09:45.078Z,13.98
2018-04-12T09:12:12.753Z,14.01
2018-04-12T09:14:40.454Z,14.05
2018-04-12T09:17:08.261Z,14.23
2018-04-12T09:19:35.905Z,14.37
2018-04-12T09:22:03.588Z,14.55
2018-04-12T09:24:31.209Z,14.66
2018-04-12T09:26:58.856Z,14.81
2018-04-12T09:29:26.501Z,14.91
2018-04-12T09:31:54.140Z,15.14
2018-04-12T09:34:21.747Z,15.32
2018-04-12T09:36:50.145Z,15.47
2018-04-12T09:39:17.810Z,15.61
2018-04-12T09:41:45.439Z,15.76
2018-04-12T09:44:13.074Z,15.78
2018-04-12T09:46:40.693Z,15.74
2018-04-12T09:49:08.450Z,15.79
2018-04-12T09:51:36.003Z,15.98
2018-04-12T09:54:03.630Z,16.17
2018-04-12T09:56:31.221Z,16.16
2018-04-12T09:58:58.881Z,16.12
2018-04-12T10:01:26.475Z,16.12
2018-04-12T10:03:55.852Z,16.24
2018-04-12T10:06:23.485Z,16.33
2018-04-12T10:08:56.510Z,16.47
2018-04-12T10:11:24.124Z,16.72
2018-04-12T10:13:51.765Z,16.98
2018-04-12T10:16:19.366Z,17.08
2018-04-12T10:18:47.011Z,17.19
2018-04-12T10:21:14.661Z,17.29
2018-04-12T10:23:42.293Z,17.28
2018-04-12T10:26:10.124Z,17.26
2018-04-12T10:28:37.773Z,17.25
2018-04-12T10:31:05.424Z,17.14
2018-04-12T10:33:33.020Z,17.07
2018-04-12T10:36:00.708Z,17.03
2018-04-12T10:38:28.349Z,17.03
2018-04-12T10:40:55.996Z,16.89
2018-04-12T10:43:23.658Z,16.93
2018-04-12T10:45:51.313Z,16.98
2018-04-12T10:48:18.905Z,17.01
2018-04-12T10:50:46.689Z,17.16
2018-04-12T10:53:14.341Z,17.42
2018-04-12T10:55:41.949Z,17.55
2018-04-12T10:58:09.590Z,17.77
2018-04-12T11:00:37.225Z,18.02
2018-04-12T11:03:04.871Z,18.02
2018-04-12T11:05:32.469Z,18.09
2018-04-12T11:08:00.157Z,18.29
2018-04-12T11:10:27.785Z,18.34
2018-04-12T11:12:55.478Z,18.31
2018-04-12T11:15:23.123Z,18.29
2018-04-12T11:17:50.801Z,18.29
2018-04-12T11:20:18.426Z,18.25
2018-04-12T11:22:46.105Z,18.34
2018-04-12T11:25:13.722Z,18.50
2018-04-12T11:27:41.324Z,18.79
2018-04-12T11:30:08.965Z,19.01
2018-04-12T11:32:36.581Z,19.07
2018-04-12T11:35:04.249Z,19.29
2018-04-12T11:37:31.857Z,19.23
2018-04-12T11:39:59.523Z,19.39
2018-04-12T11:42:27.141Z,19.71
2018-04-12T11:44:54.801Z,19.94
2018-04-12T11:47:22.445Z,20.17
2018-04-12T11:49:50.119Z,20.18
2018-04-12T11:52:17.764Z,20.19
2018-04-12T11:54:45.421Z,20.27
2018-04-12T11:57:13.041Z,19.94
2018-04-12T11:59:40.756Z,19.63
2018-04-12T12:02:08.423Z,19.43
2018-04-12T12:04:36.159Z,19.40
2018-04-12T12:07:03.781Z,19.49
2018-04-12T12:09:31.425Z,19.76
2018-04-12T12:11:59.066Z,19.93
2018-04-12T12:14:26.742Z,20.20
2018-04-12T12:16:54.379Z,20.57
2018-04-12T12:19:22.000Z,20.80
2018-04-12T12:21:49.663Z,20.90
2018-04-12T12:24:17.325Z,21.28
2018-04-12T12:26:44.972Z,21.42
2018-04-12T12:29:12.576Z,21.73
2018-04-12T12:31:40.290Z,21.70
2018-04-12T12:34:07.901Z,21.62
2018-04-12T12:36:35.532Z,21.61
2018-04-12T12:39:03.162Z,21.77
2018-04-12T12:41:30.776Z,21.86
2018-04-12T12:43:58.410Z,22.08
2018-04-12T12:46:26.000Z,22.02
2018-04-12T12:48:53.624Z,21.96
2018-04-12T12:51:21.234Z,22.29
2018-04-12T12:53:48.854Z,22.47
2018-04-12T12:56:16.438Z,22.63
2018-04-12T12:58:44.113Z,22.79
2018-04-12T13:01:11.710Z,23.04
2018-04-12T13:03:39.353Z,22.74
2018-04-12T13:06:06.961Z,22.94
2018-04-12T13:08:34.626Z,22.91
2018-04-12T13:11:02.250Z,22.96
2018-04-12T13:13:29.857Z,23.10
2018-04-12T13:15:57.528Z,22.96
2018-04-12T13:18:25.141Z,22.98
2018-04-12T13:20:52.798Z,23.16
2018-04-12T13:23:20.401Z,23.21
2018-04-12T13:25:48.053Z,22.75
2018-04-12T13:28:15.661Z,22.93
2018-04-12T13:30:43.294Z,23.25
2018-04-12T13:33:10.945Z,23.16
2018-04-12T13:35:38.545Z,23.01
2018-04-12T13:38:06.159Z,23.18
2018-04-12T13:40:33.809Z,23.21
2018-04-12T13:43:01.421Z,23.37
2018-04-12T13:45:29.085Z,23.52
2018-04-12T13:47:56.675Z,23.07
2018-04-12T13:50:24.315Z,22.91
2018-04-12T13:52:51.966Z,22.77
2018-04-12T13:55:19.568Z,22.88
2018-04-12T13:57:47.199Z,22.38
2018-04-12T14:00:14.835Z,22.21
2018-04-12T14:02:42.481Z,22.30
2018-04-12T14:05:10.110Z,22.48
2018-04-12T14:07:37.758Z,22.85
2018-04-12T14:10:05.362Z,23.21
2018-04-12T14:12:33.002Z,23.42
2018-04-12T14:15:00.626Z,23.38
2018-04-12T14:17:28.280Z,22.96
2018-04-12T14:19:55.903Z,22.44
2018-04-12T14:22:23.566Z,22.23
2018-04-12T14:24:51.250Z,21.98
2018-04-12T14:27:18.883Z,21.95
2018-04-12T14:29:46.518Z,21.99
2018-04-12T14:32:14.207Z,22.00
2018-04-12T14:34:41.837Z,22.27
2018-04-12T14:37:09.514Z,22.39
2018-04-12T14:39:37.152Z,22.53
2018-04-12T14:42:04.754Z,22.97
2018-04-12T14:44:32.416Z,23.23
2018-04-12T14:47:00.041Z,23.48
2018-04-12T14:49:27.683Z,23.57
2018-04-12T14:51:55.297Z,23.27
2018-04-12T14:54:22.997Z,22.78
2018-04-12T14:56:50.616Z,22.70
2018-04-12T14:59:18.264Z,22.41
2018-04-12T15:01:45.875Z,22.13
2018-04-12T15:04:13.525Z,21.94
2018-04-12T15:06:41.189Z,21.92
2018-04-12T15:09:08.821Z,21.97
2018-04-12T15:11:36.428Z,21.82
2018-04-12T15:14:04.083Z,21.77
2018-04-12T15:16:31.684Z,21.65
2018-04-12T15:18:59.344Z,21.62
2018-04-12T15:21:27.037Z,21.51
2018-04-12T15:23:54.666Z,21.52
2018-04-12T15:26:22.317Z,21.50
2018-04-12T15:28:49.925Z,21.57
2018-04-12T15:31:17.568Z,21.59
2018-04-12T15:33:45.189Z,21.59
2018-04-12T15:36:12.821Z,21.59
2018-04-12T15:38:40.500Z,21.58
2018-04-12T15:41:08.177Z,21.52
2018-04-12T15:43:35.784Z,21.50
2018-04-12T15:46:03.393Z,21.41
2018-04-12T15:48:31.093Z,21.35
2018-04-12T15:50:58.720Z,21.34
2018-04-12T15:53:26.394Z,21.33
2018-04-12T15:55:54.068Z,21.35
2018-04-12T15:58:21.727Z,21.39
2018-04-12T16:00:49.340Z,21.44
2018-04-12T16:03:16.976Z,21.44
2018-04-12T16:05:44.606Z,21.48
2018-04-12T16:08:12.240Z,21.55
2018-04-12T16:10:39.856Z,21.51
2018-04-12T16:13:07.519Z,21.49
2018-04-12T16:15:35.130Z,21.47
2018-04-12T16:18:02.798Z,21.53
2018-04-12T16:20:30.414Z,21.85
2018-04-12T16:22:58.056Z,22.22
2018-04-12T16:25:25.691Z,22.42
2018-04-12T16:27:53.343Z,22.46
2018-04-12T16:30:20.967Z,22.41
2018-04-12T16:32:48.597Z,22.19
2018-04-12T16:35:16.272Z,22.08
2018-04-12T16:37:43.901Z,21.90
2018-04-12T16:40:11.541Z,21.75
2018-04-12T16:42:39.133Z,21.61
2018-04-12T16:45:06.829Z,21.43
2018-04-12T16:47:34.446Z,21.34
2018-04-12T16:50:02.094Z,21.32
2018-04-12T16:52:29.692Z,21.26
2018-04-12T16:54:57.321Z,21.23
2018-04-12T16:57:24.936Z,21.17
2018-04-12T16:59:52.607Z,21.06
2018-04-12T17:02:20.215Z,21.01
2018-04-12T17:04:47.904Z,20.99
2018-04-12T17:07:15.729Z,20.90
2018-04-12T17:09:43.372Z,20.84
2018-04-12T17:12:11.881Z,20.79
2018-04-12T17:14:39.481Z,20.74
2018-04-12T17:17:07.207Z,20.66
2018-04-12T17:19:34.966Z,20.59
2018-04-12T17:22:02.636Z,20.55
2018-04-12T17:24:30.342Z,20.50
2018-04-12T17:26:58.127Z,20.39
2018-04-12T17:29:25.900Z,20.35
2018-04-12T17:31:53.606Z,20.32
2018-04-12T17:34:21.331Z,20.30
2018-04-12T17:36:49.063Z,20.25
2018-04-12T17:39:16.795Z,20.20
2018-04-12T17:41:44.534Z,20.18
2018-04-12T17:44:12.228Z,20.14
2018-04-12T17:46:39.923Z,20.07
2018-04-12T17:49:07.593Z,19.98
2018-04-12T17:51:35.218Z,19.97
2018-04-12T17:54:02.875Z,19.89
2018-04-12T17:56:30.624Z,19.85
2018-04-12T17:58:58.279Z,19.78
2018-04-12T18:01:25.927Z,19.75
2018-04-12T18:03:53.627Z,19.69
2018-04-12T18:06:21.271Z,19.63
2018-04-12T18:08:48.980Z,19.57
2018-04-12T18:11:16.672Z,19.46
2018-04-12T18:13:44.441Z,19.43
2018-04-12T18:16:12.101Z,19.36
2018-04-12T18:18:39.805Z,19.33
2018-04-12T18:21:07.827Z,19.24
2018-04-12T18:23:35.706Z,19.24
2018-04-12T18:26:03.471Z,19.21
2018-04-12T18:28:31.348Z,19.17
2018-04-12T18:30:59.414Z,19.12
2018-04-12T18:33:28.621Z,19.09
2018-04-12T18:35:56.460Z,19.04
2018-04-12T18:38:24.204Z,19.02
2018-04-12T18:40:52.333Z,18.96
2018-04-12T18:43:20.299Z,18.93
2018-04-12T18:45:48.565Z,18.97
2018-04-12T18:48:21.072Z,18.96
2018-04-12T18:50:48.798Z,18.97
2018-04-12T18:53:17.039Z,18.94
2018-04-12T18:55:53.045Z,18.94
2018-04-12T18:58:22.865Z,18.95
2018-04-12T19:00:50.733Z,18.90
2018-04-12T19:03:24.628Z,18.85
2018-04-12T19:06:01.937Z,18.81
2018-04-12T19:11:14.081Z,18.61
2018-04-12T19:13:52.180Z,18.58
2018-04-12T19:19:09.885Z,18.47
2018-04-12T19:21:39.185Z,18.44
2018-04-12T19:24:16.346Z,18.39
2018-04-12T19:26:52.433Z,18.33
2018-04-12T19:29:29.128Z,18.30
2018-04-12T19:34:37.535Z,18.22
2018-04-12T19:37:10.874Z,18.20
2018-04-12T19:39:41.713Z,18.15
2018-04-12T19:42:15.108Z,18.18
2018-04-12T19:44:44.717Z,18.11
2018-04-12T19:47:14.689Z,18.06
2018-04-12T19:49:46.185Z,18.00
2018-04-12T19:52:18.682Z,17.99
2018-04-12T19:54:48.549Z,17.98
2018-04-12T19:57:16.584Z,17.92
2018-04-12T19:59:44.438Z,17.93
2018-04-12T20:02:12.903Z,17.88
2018-04-12T20:04:40.883Z,17.85
2018-04-12T20:07:11.094Z,17.84
2018-04-12T20:09:39.752Z,17.88
2018-04-12T20:12:12.842Z,17.89
2018-04-12T20:14:42.516Z,17.89
2018-04-12T20:17:13.419Z,17.87
2018-04-12T20:19:44.866Z,17.85
2018-04-12T20:22:12.779Z,17.81
2018-04-12T20:24:43.050Z,17.79
2018-04-12T20:27:16.045Z,17.77
2018-04-12T20:29:49.746Z,17.75
2018-04-12T20:32:17.672Z,17.74
2018-04-12T20:34:46.056Z,17.72
2018-04-12T20:37:17.080Z,17.60
2018-04-12T20:39:46.756Z,17.58
2018-04-12T20:42:14.527Z,17.49
2018-04-12T20:44:42.175Z,17.29
2018-04-12T20:47:09.770Z,17.22
2018-04-12T20:49:37.443Z,17.22
2018-04-12T20:52:05.058Z,17.23
2018-04-12T20:54:32.715Z,17.23
2018-04-12T20:57:00.307Z,17.17
2018-04-12T20:59:27.947Z,17.11
2018-04-12T21:01:55.605Z,17.08
2018-04-12T21:04:23.233Z,17.05
2018-04-12T21:06:50.893Z,16.99
2018-04-12T21:09:18.531Z,16.99
2018-04-12T21:11:46.244Z,16.95
2018-04-12T21:14:13.860Z,16.90
2018-04-12T21:16:41.525Z,16.83
2018-04-12T21:19:09.139Z,16.75
2018-04-12T21:21:36.784Z,16.71
2018-04-12T21:24:04.434Z,16.69
2018-04-12T21:26:32.085Z,16.65
2018-04-12T21:28:59.728Z,16.59
2018-04-12T21:31:27.457Z,16.56
2018-04-12T21:33:55.122Z,16.54
2018-04-12T21:36:22.822Z,16.51
2018-04-12T21:38:50.537Z,16.37
2018-04-12T21:41:18.312Z,16.33
2018-04-12T21:43:45.951Z,16.28
2018-04-12T21:46:13.662Z,16.24
2018-04-12T21:48:41.309Z,16.22
2018-04-12T21:51:09.066Z,16.17
2018-04-12T21:53:36.790Z,16.10
2018-04-12T21:56:04.437Z,16.05
2018-04-12T21:58:32.200Z,15.94
2018-04-12T22:00:59.974Z,15.91
2018-04-12T22:03:27.658Z,15.84
2018-04-12T22:05:55.334Z,15.84
2018-04-12T22:08:23.044Z,15.85
2018-04-12T22:10:50.946Z,15.82
2018-04-12T22:13:18.661Z,15.77
2018-04-12T22:15:46.439Z,15.76
2018-04-12T22:18:14.128Z,15.70
2018-04-12T22:20:41.850Z,15.72
2018-04-12T22:23:09.736Z,15.58
2018-04-12T22:25:37.485Z,15.47
2018-04-12T22:28:05.138Z,15.42
2018-04-12T22:30:32.781Z,15.45
2018-04-12T22:33:00.434Z,15.51
2018-04-12T22:35:28.090Z,15.48
2018-04-12T22:37:55.735Z,15.42
2018-04-12T22:40:23.486Z,15.39
2018-04-12T22:42:51.136Z,15.38
2018-04-12T22:45:18.825Z,15.30
2018-04-12T22:47:46.438Z,15.26
2018-04-12T22:50:14.040Z,15.09
2018-04-12T22:52:41.741Z,14.85
2018-04-12T22:55:09.461Z,14.73
2018-04-12T22:57:37.137Z,14.65
2018-04-12T23:00:04.786Z,14.69
2018-04-12T23:02:32.441Z,14.80
2018-04-12T23:05:00.218Z,14.84
2018-04-12T23:07:28.100Z,14.86
2018-04-12T23:09:55.704Z,14.90
2018-04-12T23:12:23.337Z,14.80
2018-04-12T23:14:51.018Z,14.72
2018-04-12T23:17:18.664Z,14.55
2018-04-12T23:19:46.298Z,14.58
2018-04-12T23:22:14.053Z,14.47
2018-04-12T23:24:41.670Z,14.46
2018-04-12T23:27:09.400Z,14.42
2018-04-12T23:29:37.047Z,14.39
2018-04-12T23:32:04.780Z,14.28
2018-04-12T23:34:32.432Z,14.15
2018-04-12T23:37:00.256Z,14.10
2018-04-12T23:39:27.996Z,14.13
2018-04-12T23:41:55.596Z,14.17
2018-04-12T23:44:23.252Z,14.23
2018-04-12T23:46:50.879Z,14.27
2018-04-12T23:49:18.520Z,14.31
2018-04-12T23:51:46.175Z,14.28
2018-04-12T23:54:13.862Z,14.12
2018-04-12T23:56:41.616Z,14.10
2018-04-12T23:59:09.315Z,13.97
